Time;durP1;ratioP1;P1;durP2;ratioP2;P2;SDS_P1;SDS_P2;PMS_P1;PMS_P2;Temp;Humidity;BMP_temperature;BMP_pressure;BME280_temperature;BME280_humidity;BME280_pressure;Samples;Min_cycle;Max_cycle;Signal;HPM_P1;HPM_P2
2022/09/15 00:01:22;;;;;;;3.63;1.60;;;19.80;84.00;;;;;;5111653;28;20528;-78
2022/09/15 00:03:48;;;;;;;3.30;1.65;;;19.80;84.00;;;;;;5113397;28;20020;-78
2022/09/15 00:06:14;;;;;;;3.10;1.67;;;19.80;84.00;;;;;;5112195;28;20023;-79
2022/09/15 00:08:40;;;;;;;2.92;1.55;;;19.80;84.10;;;;;;5113220;28;20084;-78
2022/09/15 00:11:17;;;;;;;3.40;1.50;;;19.80;84.00;;;;;;5112889;28;20023;-79
2022/09/15 00:13:43;;;;;;;3.00;1.65;;;19.80;84.10;;;;;;5112164;28;20019;-79
2022/09/15 00:16:10;;;;;;;4.53;2.00;;;19.80;84.10;;;;;;5111929;28;20030;-77
2022/09/15 00:18:36;;;;;;;3.17;1.60;;;19.80;84.10;;;;;;5111992;28;20026;-78
2022/09/15 00:21:07;;;;;;;3.15;1.80;;;19.80;84.10;;;;;;5111563;28;20024;-77
2022/09/15 00:23:33;;;;;;;3.15;1.42;;;19.80;84.10;;;;;;5111900;28;20024;-78
2022/09/15 00:25:59;;;;;;;3.88;1.80;;;19.80;84.00;;;;;;5110922;28;20038;-74
2022/09/15 00:28:25;;;;;;;2.25;1.42;;;19.80;83.90;;;;;;5110993;28;20034;-77
2022/09/15 00:30:52;;;;;;;4.10;1.70;;;19.80;83.90;;;;;;5110793;28;20038;-77
2022/09/15 00:33:18;;;;;;;3.95;2.00;;;19.80;83.80;;;;;;5111577;28;20119;-77
2022/09/15 00:35:47;;;;;;;4.30;1.65;;;19.90;83.90;;;;;;5112871;28;20020;-77
2022/09/15 00:38:14;;;;;;;2.50;1.50;;;19.80;83.90;;;;;;5112590;28;20030;-79
2022/09/15 00:40:45;;;;;;;3.45;1.80;;;19.80;83.80;;;;;;5112337;28;20031;-78
2022/09/15 00:43:11;;;;;;;3.65;1.70;;;19.80;83.80;;;;;;5112860;28;20036;-77
2022/09/15 00:45:37;;;;;;;4.07;1.70;;;19.80;83.90;;;;;;5112593;28;20028;-79
2022/09/15 00:48:04;;;;;;;3.38;1.95;;;19.80;83.90;;;;;;5112933;28;20380;-77
2022/09/15 00:50:31;;;;;;;3.80;1.70;;;19.70;83.90;;;;;;5112411;28;20019;-76
2022/09/15 00:53:00;;;;;;;4.32;1.73;;;19.80;84.00;;;;;;5111664;28;20024;-77
2022/09/15 00:55:38;;;;;;;3.92;1.85;;;19.80;84.10;;;;;;5111466;28;20069;-78
2022/09/15 00:58:07;;;;;;;5.00;2.25;;;19.80;84.10;;;;;;5111503;28;20108;-77
2022/09/15 01:00:33;;;;;;;4.68;1.92;;;19.80;84.10;;;;;;5110815;28;20484;-77
2022/09/15 01:03:00;;;;;;;4.47;2.00;;;19.70;84.00;;;;;;5112634;28;20531;-77
2022/09/15 01:05:30;;;;;;;4.63;2.00;;;19.70;84.10;;;;;;5112312;28;20031;-77
2022/09/15 01:08:04;;;;;;;3.83;1.73;;;19.70;84.10;;;;;;5112773;28;20023;-79
2022/09/15 01:10:34;;;;;;;3.58;1.92;;;19.70;84.10;;;;;;5111631;28;20035;-78
2022/09/15 01:13:03;;;;;;;3.03;1.70;;;19.70;84.10;;;;;;5116324;28;20503;-78
2022/09/15 01:15:34;;;;;;;4.22;1.88;;;19.80;84.10;;;;;;5117395;28;20504;-76
2022/09/15 01:18:05;;;;;;;4.30;2.03;;;19.70;84.00;;;;;;5111204;28;20028;-78
2022/09/15 01:20:56;;;;;;;3.67;1.77;;;19.80;83.90;;;;;;5111030;28;20500;-78
2022/09/15 01:23:50;;;;;;;3.33;1.60;;;19.80;83.90;;;;;;5112341;28;20040;-80
2022/09/15 01:26:37;;;;;;;2.88;1.80;;;19.80;83.80;;;;;;5112619;28;20081;-78
2022/09/15 01:29:38;;;;;;;3.05;1.80;;;19.80;83.90;;;;;;5099779;28;20028;-77
2022/09/15 01:35:01;;;;;;;4.47;2.00;;;19.80;83.90;;;;;;5113069;28;20027;-78
2022/09/15 01:37:35;;;;;;;5.57;2.20;;;19.80;83.90;;;;;;5114766;28;20106;-78
2022/09/15 01:40:03;;;;;;;4.18;2.08;;;19.80;83.90;;;;;;5115010;28;20068;-78
2022/09/15 01:42:30;;;;;;;4.10;1.80;;;19.80;84.00;;;;;;5114266;28;20031;-79
2022/09/15 01:45:02;;;;;;;7.47;2.63;;;19.70;83.50;;;;;;5114790;28;20069;-77
2022/09/15 01:47:29;;;;;;;7.97;2.90;;;19.70;83.60;;;;;;5116022;28;20035;-77
2022/09/15 01:50:04;;;;;;;8.50;3.20;;;19.70;83.60;;;;;;5115750;28;20097;-78
2022/09/15 01:52:30;;;;;;;7.88;2.65;;;19.80;83.70;;;;;;5114384;28;20024;-78
2022/09/15 01:55:01;;;;;;;5.90;2.80;;;19.80;83.60;;;;;;5114654;28;20485;-77
2022/09/15 01:57:26;;;;;;;7.53;2.80;;;19.80;83.60;;;;;;5114774;28;20028;-78
2022/09/15 01:59:54;;;;;;;6.55;2.90;;;19.80;83.90;;;;;;5114217;28;20034;-78
2022/09/15 02:02:25;;;;;;;7.85;2.60;;;19.90;84.20;;;;;;5115449;28;20027;-78
2022/09/15 02:04:56;;;;;;;7.47;2.97;;;19.90;84.20;;;;;;5114371;28;20019;-78
2022/09/15 02:07:31;;;;;;;5.97;2.88;;;20.10;84.60;;;;;;5114425;28;20043;-77
2022/09/15 02:10:10;;;;;;;6.10;2.67;;;20.20;85.10;;;;;;5115536;28;20023;-79
2022/09/15 02:12:49;;;;;;;7.35;2.50;;;20.30;85.10;;;;;;5115188;27;20437;-77
2022/09/15 02:15:28;;;;;;;6.18;2.70;;;20.50;85.20;;;;;;5113997;28;20072;-77
2022/09/15 02:17:54;;;;;;;4.95;2.25;;;20.60;85.60;;;;;;5115396;28;20016;-78
2022/09/15 02:20:40;;;;;;;13.43;2.88;;;20.70;85.40;;;;;;5113919;28;20027;-77
2022/09/15 02:23:14;;;;;;;8.00;3.00;;;20.80;85.80;;;;;;5114218;28;20122;-78
2022/09/15 02:25:45;;;;;;;8.65;2.65;;;20.80;85.70;;;;;;5113788;28;20023;-78
2022/09/15 02:28:14;;;;;;;6.72;2.63;;;20.90;85.60;;;;;;5113408;28;20381;-79
2022/09/15 02:30:42;;;;;;;5.45;2.60;;;20.90;85.40;;;;;;5115072;28;20034;-79
2022/09/15 02:33:14;;;;;;;8.43;2.67;;;21.00;85.60;;;;;;5113867;28;20026;-79
2022/09/15 02:35:41;;;;;;;10.70;3.08;;;21.00;85.60;;;;;;5109508;28;20046;-78
2022/09/15 02:38:08;;;;;;;10.68;3.05;;;21.00;85.30;;;;;;5112580;28;20060;-78
2022/09/15 02:40:35;;;;;;;9.48;2.67;;;21.10;85.20;;;;;;5113304;28;20031;-78
2022/09/15 02:43:01;;;;;;;6.75;2.60;;;21.00;84.90;;;;;;5114939;28;20540;-78
2022/09/15 02:45:29;;;;;;;9.15;3.08;;;20.90;85.20;;;;;;5113415;28;20059;-78
2022/09/15 02:47:58;;;;;;;6.65;2.67;;;20.80;85.60;;;;;;5113812;28;20085;-77
2022/09/15 02:50:25;;;;;;;6.22;2.50;;;20.70;85.70;;;;;;5128648;27;20033;-77
2022/09/15 02:52:51;;;;;;;6.60;2.40;;;20.70;86.10;;;;;;5134402;27;20076;-78
2022/09/15 02:55:17;;;;;;;6.40;2.63;;;20.70;86.00;;;;;;5135732;27;20504;-77
2022/09/15 02:57:42;;;;;;;6.13;2.70;;;20.60;86.00;;;;;;5134079;27;20046;-78
2022/09/15 03:00:12;;;;;;;7.88;2.63;;;20.60;86.10;;;;;;5133878;27;20111;-78
2022/09/15 03:02:38;;;;;;;6.60;2.78;;;20.60;86.10;;;;;;5133500;27;20109;-76
2022/09/15 03:05:04;;;;;;;7.00;2.40;;;20.60;86.10;;;;;;5134011;27;20023;-77
2022/09/15 03:07:30;;;;;;;6.90;2.70;;;20.50;86.10;;;;;;5135831;27;20550;-78
2022/09/15 03:09:57;;;;;;;7.22;2.60;;;20.50;86.20;;;;;;5134382;27;20514;-77
2022/09/15 03:12:23;;;;;;;10.52;2.90;;;20.50;86.30;;;;;;5132653;27;20106;-78
2022/09/15 03:14:49;;;;;;;5.93;2.67;;;20.50;86.40;;;;;;5133086;27;20046;-77
2022/09/15 03:17:15;;;;;;;7.25;2.67;;;20.40;86.40;;;;;;5134121;27;20486;-78
2022/09/15 03:19:40;;;;;;;7.18;2.30;;;20.40;86.40;;;;;;5134304;27;20023;-77
2022/09/15 03:22:08;;;;;;;7.55;2.70;;;20.40;86.40;;;;;;5132392;27;20024;-77
2022/09/15 03:24:33;;;;;;;6.22;2.55;;;20.40;86.40;;;;;;5133126;27;20395;-77
2022/09/15 03:26:59;;;;;;;6.05;2.45;;;20.40;86.50;;;;;;5133963;27;20027;-77
2022/09/15 03:29:26;;;;;;;7.68;2.80;;;20.30;86.40;;;;;;5114216;27;20031;-77
2022/09/15 03:31:51;;;;;;;7.10;2.33;;;20.30;86.40;;;;;;5111477;28;20026;-77
2022/09/15 03:34:17;;;;;;;5.72;2.22;;;20.30;86.40;;;;;;5111967;28;20122;-78
2022/09/15 03:36:42;;;;;;;7.90;2.90;;;20.30;86.40;;;;;;5113537;28;20026;-78
2022/09/15 03:39:10;;;;;;;6.25;2.60;;;20.30;86.40;;;;;;5113035;28;20106;-78
2022/09/15 03:41:35;;;;;;;9.02;2.60;;;20.30;86.40;;;;;;5112464;28;20027;-77
2022/09/15 03:44:01;;;;;;;5.72;2.50;;;20.30;86.30;;;;;;5112198;28;20123;-77
2022/09/15 03:46:28;;;;;;;7.40;2.78;;;20.30;86.20;;;;;;5112081;28;20057;-77
2022/09/15 03:48:53;;;;;;;7.00;2.35;;;20.40;86.10;;;;;;5111854;28;20399;-78
2022/09/15 03:51:19;;;;;;;5.78;2.30;;;20.30;85.90;;;;;;5111060;28;20023;-76
2022/09/15 03:53:45;;;;;;;5.68;2.60;;;20.30;85.90;;;;;;5111563;28;20023;-77
2022/09/15 03:56:20;;;;;;;7.82;2.55;;;20.30;85.90;;;;;;5113111;28;20020;-78
2022/09/15 03:58:46;;;;;;;6.07;2.65;;;20.10;85.90;;;;;;5111411;28;20043;-77
2022/09/15 04:01:12;;;;;;;6.82;2.60;;;20.30;86.10;;;;;;5112072;28;20487;-77
2022/09/15 04:03:37;;;;;;;6.40;2.60;;;20.20;86.00;;;;;;5111269;28;20030;-77
2022/09/15 04:06:03;;;;;;;6.95;2.65;;;20.20;86.10;;;;;;5111582;28;20077;-76
2022/09/15 04:08:29;;;;;;;7.88;2.60;;;20.20;86.20;;;;;;5115500;28;20480;-82
2022/09/15 04:10:54;;;;;;;7.43;2.60;;;20.20;86.30;;;;;;5115075;28;20080;-79
2022/09/15 04:13:21;;;;;;;5.75;2.33;;;20.10;86.20;;;;;;5113718;28;20027;-76
2022/09/15 04:15:47;;;;;;;8.15;2.40;;;20.10;86.20;;;;;;5110209;28;20019;-78
2022/09/15 04:18:12;;;;;;;7.13;2.58;;;20.10;86.20;;;;;;5114908;28;20016;-77
2022/09/15 04:20:38;;;;;;;6.25;2.80;;;20.10;86.20;;;;;;5113275;28;20028;-78
2022/09/15 04:23:04;;;;;;;6.38;2.22;;;20.10;86.20;;;;;;5114313;28;20061;-78
2022/09/15 04:25:30;;;;;;;6.97;2.40;;;20.10;86.30;;;;;;5115550;28;20023;-78
2022/09/15 04:27:56;;;;;;;6.80;2.70;;;20.10;86.30;;;;;;5109913;28;20038;-78
2022/09/15 04:30:22;;;;;;;6.45;2.50;;;20.10;86.40;;;;;;5095240;28;20027;-77
2022/09/15 04:32:48;;;;;;;5.32;2.30;;;20.10;86.20;;;;;;5114342;28;20020;-78
2022/09/15 04:35:14;;;;;;;6.53;2.60;;;20.10;86.00;;;;;;5113286;28;20020;-77
2022/09/15 04:37:40;;;;;;;6.88;2.25;;;20.20;86.00;;;;;;5112237;28;20466;-78
2022/09/15 04:40:06;;;;;;;7.32;2.53;;;20.10;85.90;;;;;;5113884;28;20034;-78
2022/09/15 04:42:32;;;;;;;7.50;2.20;;;20.10;85.80;;;;;;5114815;28;20053;-78
2022/09/15 04:44:58;;;;;;;5.15;2.33;;;20.10;85.90;;;;;;5115444;28;20028;-78
2022/09/15 04:47:23;;;;;;;5.97;2.63;;;20.10;85.90;;;;;;5112834;28;20051;-78
2022/09/15 04:49:49;;;;;;;5.65;2.28;;;20.10;86.00;;;;;;5115066;28;20490;-77
2022/09/15 04:52:14;;;;;;;6.95;2.55;;;20.10;86.00;;;;;;5111462;28;20046;-78
2022/09/15 04:54:40;;;;;;;7.00;2.58;;;20.10;86.00;;;;;;5112335;28;20019;-78
2022/09/15 04:57:05;;;;;;;5.25;2.60;;;20.00;86.00;;;;;;5113203;28;20028;-78
2022/09/15 04:59:31;;;;;;;6.03;2.50;;;20.00;86.00;;;;;;5114023;28;20107;-78
2022/09/15 05:01:56;;;;;;;7.07;2.40;;;20.00;86.00;;;;;;5115161;28;20483;-79
2022/09/15 05:04:22;;;;;;;6.70;2.53;;;20.00;86.00;;;;;;5115925;28;20106;-79
2022/09/15 05:06:47;;;;;;;7.70;2.70;;;20.00;86.00;;;;;;5115247;28;20502;-77
2022/09/15 05:09:13;;;;;;;6.00;2.67;;;20.00;85.90;;;;;;5113600;28;20034;-78
2022/09/15 05:11:39;;;;;;;4.55;2.20;;;20.00;86.00;;;;;;5108049;28;20028;-78
2022/09/15 05:14:05;;;;;;;5.45;2.25;;;19.90;85.90;;;;;;5115926;28;20590;-79
2022/09/15 05:16:31;;;;;;;5.45;2.50;;;19.90;85.80;;;;;;5117947;27;20026;-79
2022/09/15 05:18:59;;;;;;;4.78;2.17;;;19.90;85.80;;;;;;5117735;28;20476;-82
2022/09/15 05:21:26;;;;;;;5.25;2.25;;;20.00;85.70;;;;;;5117248;28;20030;-78
2022/09/15 05:23:52;;;;;;;5.20;2.40;;;20.00;85.60;;;;;;5116503;28;20027;-77
2022/09/15 05:26:21;;;;;;;5.55;2.13;;;20.00;85.50;;;;;;5118270;28;20114;-78
2022/09/15 05:28:46;;;;;;;5.65;2.50;;;20.00;85.40;;;;;;5118076;28;20016;-78
2022/09/15 05:31:18;;;;;;;4.88;2.47;;;20.00;85.40;;;;;;5117323;28;20024;-78
2022/09/15 05:33:45;;;;;;;4.82;2.40;;;20.00;85.50;;;;;;5115851;28;20028;-78
2022/09/15 05:36:13;;;;;;;4.97;2.10;;;20.00;85.50;;;;;;5114104;28;20047;-76
2022/09/15 05:38:38;;;;;;;6.25;2.17;;;19.90;85.50;;;;;;5115052;28;20560;-76
2022/09/15 05:41:07;;;;;;;5.13;2.30;;;20.00;85.50;;;;;;5114723;28;20030;-76
2022/09/15 05:43:34;;;;;;;4.82;2.20;;;20.00;85.60;;;;;;5114702;28;20031;-75
2022/09/15 05:46:00;;;;;;;5.32;2.65;;;20.00;85.60;;;;;;5113282;28;20033;-75
2022/09/15 05:48:26;;;;;;;4.32;2.10;;;19.90;85.50;;;;;;5111630;28;20085;-77
2022/09/15 05:50:53;;;;;;;5.63;2.28;;;19.90;85.60;;;;;;5111822;28;20035;-78
2022/09/15 05:53:19;;;;;;;5.22;2.60;;;19.90;85.50;;;;;;5113711;28;20446;-84
2022/09/15 05:55:45;;;;;;;8.35;2.63;;;19.90;85.60;;;;;;5108905;28;20019;-76
2022/09/15 05:58:10;;;;;;;10.18;4.60;;;19.90;85.00;;;;;;5115381;27;20139;-78
2022/09/15 06:00:36;;;;;;;8.10;4.53;;;19.80;79.90;;;;;;5117936;28;20038;-79
2022/09/15 06:03:02;;;;;;;9.48;4.55;;;19.70;79.30;;;;;;5121342;28;20036;-76
2022/09/15 06:05:28;;;;;;;8.63;4.75;;;19.60;79.80;;;;;;5118461;28;20067;-79
2022/09/15 06:07:54;;;;;;;7.85;4.88;;;19.60;79.10;;;;;;5118613;28;20034;-79
2022/09/15 06:10:23;;;;;;;6.63;4.18;;;19.60;79.60;;;;;;5114414;28;20035;-79
2022/09/15 06:12:50;;;;;;;7.18;4.22;;;19.60;78.60;;;;;;5114730;28;20046;-77
2022/09/15 06:15:15;;;;;;;7.57;4.35;;;19.60;78.30;;;;;;5111494;28;20384;-77
2022/09/15 06:17:41;;;;;;;12.43;4.95;;;19.60;78.70;;;;;;5113777;27;20026;-78
2022/09/15 06:20:06;;;;;;;10.43;4.93;;;19.70;78.60;;;;;;5112511;27;20051;-78
2022/09/15 17:40:24;;;;;;;1.67;0.60;;;19.80;76.80;;;;;;4911131;29;20059;-74
2022/09/15 17:42:49;;;;;;;2.10;0.70;;;19.80;76.90;;;;;;4915770;29;20461;-75
2022/09/15 17:45:20;;;;;;;2.15;0.60;;;19.70;76.90;;;;;;4901742;29;20515;-79
2022/09/15 17:47:46;;;;;;;1.40;0.70;;;19.70;77.00;;;;;;4901348;29;20032;-78
2022/09/15 17:50:12;;;;;;;1.75;0.70;;;19.70;77.10;;;;;;4900559;29;20042;-77
2022/09/15 17:52:37;;;;;;;2.47;0.75;;;19.70;77.20;;;;;;4919592;29;20110;-78
2022/09/15 17:55:19;;;;;;;3.28;0.77;;;19.70;77.30;;;;;;4950237;23;20075;-79
2022/09/15 17:57:45;;;;;;;2.28;0.70;;;19.70;77.40;;;;;;4940736;29;20032;-80
2022/09/15 18:00:12;;;;;;;1.38;0.77;;;19.70;77.40;;;;;;4942559;29;20030;-85
2022/09/15 18:02:41;;;;;;;1.17;0.55;;;19.70;77.40;;;;;;4943734;29;20051;-81
2022/09/15 18:05:21;;;;;;;2.15;0.70;;;19.80;77.50;;;;;;4947777;28;20050;-78
2022/09/15 18:07:46;;;;;;;2.67;0.70;;;19.80;77.50;;;;;;4961952;28;20031;-79
2022/09/15 18:10:13;;;;;;;2.78;0.68;;;19.80;77.50;;;;;;4961699;28;20038;-78
2022/09/15 18:12:39;;;;;;;2.22;0.68;;;19.80;77.50;;;;;;4962558;28;20027;-80
2022/09/15 18:15:05;;;;;;;1.33;0.55;;;19.80;77.50;;;;;;4979388;28;20027;-79
2022/09/15 18:17:31;;;;;;;2.35;0.60;;;19.80;77.50;;;;;;4962060;28;20046;-79
2022/09/15 18:19:56;;;;;;;3.38;1.02;;;19.80;77.70;;;;;;4978856;28;20034;-80
2022/09/15 18:22:22;;;;;;;2.28;0.75;;;19.70;77.50;;;;;;4961016;28;20383;-81
2022/09/15 18:24:48;;;;;;;4.75;1.00;;;19.70;77.60;;;;;;4960930;28;20122;-80
2022/09/15 18:27:13;;;;;;;4.65;0.90;;;19.70;77.50;;;;;;4960787;28;20035;-78
2022/09/15 18:29:38;;;;;;;2.55;0.70;;;19.70;77.40;;;;;;4960683;28;20015;-79
2022/09/15 18:32:04;;;;;;;3.97;1.08;;;19.70;77.50;;;;;;4960963;28;20058;-80
2022/09/15 18:34:30;;;;;;;3.45;0.88;;;19.70;77.50;;;;;;4977639;28;20022;-79
2022/09/15 18:36:57;;;;;;;1.80;0.60;;;19.70;77.60;;;;;;4977745;28;20364;-81
2022/09/15 18:39:23;;;;;;;2.95;0.70;;;19.70;77.70;;;;;;4960865;28;20423;-80
2022/09/15 18:41:49;;;;;;;3.92;0.90;;;19.70;77.80;;;;;;4978047;28;20031;-80
2022/09/15 18:44:14;;;;;;;1.52;0.70;;;19.70;77.80;;;;;;4959971;28;20130;-79
2022/09/15 18:46:39;;;;;;;2.20;0.70;;;19.70;77.90;;;;;;4978051;28;20493;-79
2022/09/15 18:49:08;;;;;;;2.75;0.63;;;19.70;78.00;;;;;;4977953;28;20078;-79
2022/09/15 18:51:34;;;;;;;1.42;0.60;;;19.70;78.00;;;;;;4959849;28;20118;-80
2022/09/15 18:54:00;;;;;;;1.95;0.50;;;19.70;78.00;;;;;;4960065;28;20714;-80
2022/09/15 18:56:25;;;;;;;1.08;0.50;;;19.70;78.00;;;;;;4977030;28;20386;-77
2022/09/15 18:58:52;;;;;;;3.42;0.75;;;19.70;78.00;;;;;;4977207;28;20023;-80
2022/09/15 19:01:18;;;;;;;2.95;0.70;;;19.70;78.00;;;;;;4977328;28;20656;-78
2022/09/15 19:03:43;;;;;;;2.10;0.60;;;19.70;78.00;;;;;;4959504;28;20124;-81
2022/09/15 19:06:09;;;;;;;2.45;0.80;;;19.70;78.10;;;;;;4959087;28;20027;-80
2022/09/15 19:08:35;;;;;;;2.72;0.80;;;19.70;78.20;;;;;;4958990;28;20430;-79
2022/09/15 19:11:01;;;;;;;2.70;0.70;;;19.70;78.30;;;;;;4959076;28;20594;-79
2022/09/15 19:13:27;;;;;;;3.70;0.63;;;19.70;78.30;;;;;;4976588;28;20038;-80
2022/09/15 19:15:54;;;;;;;2.35;0.57;;;19.70;78.40;;;;;;4959072;28;20027;-79
2022/09/15 19:18:19;;;;;;;2.90;0.70;;;19.70;78.50;;;;;;4958378;28;20069;-79
2022/09/15 19:20:45;;;;;;;2.95;0.55;;;19.70;78.50;;;;;;4959115;28;20027;-77
2022/09/15 19:23:10;;;;;;;0.80;0.70;;;19.70;78.60;;;;;;4958661;28;20031;-79
2022/09/15 19:25:36;;;;;;;1.63;0.80;;;19.70;78.60;;;;;;4958576;28;20109;-79
2022/09/15 19:28:02;;;;;;;2.58;0.60;;;19.70;78.70;;;;;;4958473;28;20560;-79
2022/09/15 19:30:28;;;;;;;2.63;0.80;;;19.70;78.70;;;;;;4974555;28;20027;-79
2022/09/15 19:32:53;;;;;;;1.83;0.70;;;19.60;78.70;;;;;;4958413;28;20031;-80
2022/09/15 19:35:19;;;;;;;1.13;0.50;;;19.70;78.80;;;;;;4975549;28;20509;-78
2022/09/15 19:37:44;;;;;;;1.25;0.52;;;19.70;78.80;;;;;;4957679;28;20109;-79
2022/09/15 19:40:13;;;;;;;1.15;0.47;;;19.70;78.90;;;;;;4957124;28;20042;-78
2022/09/15 19:42:40;;;;;;;1.00;0.60;;;19.70;78.90;;;;;;4957897;28;20056;-79
2022/09/15 19:45:07;;;;;;;1.90;0.75;;;19.70;78.90;;;;;;4957876;28;20026;-79
2022/09/15 19:47:32;;;;;;;1.48;0.70;;;19.70;78.80;;;;;;4957583;28;20066;-77
2022/09/15 19:49:58;;;;;;;0.88;0.50;;;19.70;78.90;;;;;;4969806;28;20101;-77
2022/09/15 19:52:24;;;;;;;1.75;0.60;;;19.70;78.80;;;;;;4957165;28;20041;-78
2022/09/15 19:54:49;;;;;;;1.48;0.73;;;19.70;78.80;;;;;;4963312;28;20019;-80
2022/09/15 19:57:15;;;;;;;1.38;0.60;;;19.70;78.80;;;;;;4964593;28;20121;-80
2022/09/15 19:59:40;;;;;;;1.73;0.45;;;19.70;78.90;;;;;;4982701;28;20376;-80
2022/09/15 20:02:05;;;;;;;1.33;0.50;;;19.70;78.90;;;;;;4966124;28;20093;-80
2022/09/15 20:04:31;;;;;;;1.10;0.50;;;19.60;78.90;;;;;;4964676;28;20026;-78
2022/09/15 20:06:57;;;;;;;1.55;0.60;;;19.70;79.10;;;;;;4963934;28;20504;-80
2022/09/15 20:09:23;;;;;;;0.75;0.60;;;19.60;79.10;;;;;;4980806;28;20042;-80
2022/09/15 20:11:48;;;;;;;0.73;0.40;;;19.60;79.10;;;;;;4963319;28;20034;-79
2022/09/15 20:14:14;;;;;;;1.83;0.60;;;19.60;79.10;;;;;;4980981;28;20582;-77
2022/09/15 20:16:40;;;;;;;1.83;0.65;;;19.60;79.70;;;;;;4962599;28;20042;-79
2022/09/15 20:19:06;;;;;;;1.85;0.60;;;19.60;79.20;;;;;;4980101;28;20046;-79
2022/09/15 20:21:33;;;;;;;0.95;0.50;;;19.60;79.30;;;;;;4980008;28;20031;-79
2022/09/15 20:23:59;;;;;;;1.38;0.60;;;19.60;79.30;;;;;;4960592;28;20026;-81
2022/09/15 20:26:26;;;;;;;0.80;0.55;;;19.60;79.30;;;;;;4955313;28;20066;-78
2022/09/15 20:28:52;;;;;;;1.33;0.50;;;19.60;79.40;;;;;;4954345;28;20038;-78
2022/09/15 20:31:25;;;;;;;1.83;0.60;;;19.60;79.40;;;;;;4952785;28;20031;-79
2022/09/15 20:33:51;;;;;;;2.40;0.60;;;19.60;79.40;;;;;;4955656;28;20027;-78
2022/09/15 20:36:23;;;;;;;1.98;0.65;;;19.60;79.40;;;;;;4943613;29;20094;-79
2022/09/15 20:38:50;;;;;;;0.98;0.63;;;19.60;79.40;;;;;;4953572;28;20095;-78
2022/09/15 20:41:18;;;;;;;2.13;0.70;;;19.60;79.40;;;;;;4951374;28;20098;-78
2022/09/15 20:43:44;;;;;;;1.77;0.65;;;19.70;79.40;;;;;;4943090;28;20842;-78
2022/09/15 20:46:13;;;;;;;0.60;0.50;;;19.70;79.30;;;;;;4957427;28;20066;-79
2022/09/15 21:02:49;;;;;;;3.67;0.60;;;19.70;79.00;;;;;;5055486;28;20406;-78
2022/09/15 21:05:14;;;;;;;0.77;0.50;;;19.60;79.60;;;;;;5020323;28;20033;-78
2022/09/15 21:07:40;;;;;;;1.25;0.50;;;19.60;79.60;;;;;;5038676;28;20030;-77
2022/09/15 21:10:06;;;;;;;0.77;0.50;;;19.60;79.60;;;;;;5059706;28;20533;-77
2022/09/15 21:12:32;;;;;;;1.50;0.55;;;19.60;79.70;;;;;;5040005;28;20099;-78
2022/09/15 21:14:58;;;;;;;0.88;0.50;;;19.60;79.70;;;;;;5022230;28;20507;-78
2022/09/15 21:17:23;;;;;;;0.60;0.40;;;19.60;79.70;;;;;;5025478;28;20081;-77
2022/09/15 21:19:49;;;;;;;0.85;0.40;;;19.60;79.80;;;;;;5022196;28;20030;-78
2022/09/15 21:22:14;;;;;;;1.42;0.60;;;19.60;79.80;;;;;;5039340;28;20511;-77
2022/09/15 21:24:40;;;;;;;1.45;0.52;;;19.50;79.80;;;;;;5039770;28;20040;-76
2022/09/15 21:29:49;;;;;;;0.82;0.47;;;19.60;79.80;;;;;;5040100;28;20089;-77
2022/09/15 21:32:15;;;;;;;0.88;0.50;;;19.60;79.80;;;;;;5039255;28;20123;-77
2022/09/15 21:34:40;;;;;;;1.60;0.57;;;19.60;79.80;;;;;;5062838;28;20489;-77
2022/09/15 21:37:06;;;;;;;0.80;0.50;;;19.60;79.80;;;;;;5108418;28;20852;-77
2022/09/15 21:39:31;;;;;;;0.93;0.60;;;19.60;79.70;;;;;;5039383;28;20021;-79
2022/09/15 21:41:57;;;;;;;1.35;0.50;;;19.60;79.80;;;;;;5038789;28;20029;-79
2022/09/15 21:44:22;;;;;;;0.88;0.40;;;19.60;79.70;;;;;;5108311;28;20656;-77
2022/09/15 21:46:48;;;;;;;0.80;0.57;;;19.60;79.70;;;;;;5038970;28;20607;-77
2022/09/15 21:49:13;;;;;;;0.47;0.40;;;19.60;79.80;;;;;;5035136;28;20097;-77
2022/09/15 21:51:39;;;;;;;1.45;0.60;;;19.60;79.90;;;;;;5038635;28;20029;-78
2022/09/15 21:54:04;;;;;;;1.02;0.40;;;19.60;80.00;;;;;;5021612;28;20103;-77
2022/09/15 21:56:30;;;;;;;0.57;0.47;;;19.60;79.90;;;;;;5039474;28;20036;-77
2022/09/15 21:58:56;;;;;;;1.55;0.60;;;19.70;80.00;;;;;;5107835;28;20040;-77
2022/09/15 22:01:30;;;;;;;2.03;0.50;;;19.60;80.10;;;;;;5107556;28;20037;-78
2022/09/15 22:03:59;;;;;;;1.00;0.50;;;19.60;80.10;;;;;;5093939;28;20025;-78
2022/09/15 22:06:30;;;;;;;1.10;0.50;;;19.60;80.10;;;;;;5095068;28;20033;-79
2022/09/15 22:09:00;;;;;;;;;;;19.50;80.10;;;;;;5074532;28;20026;-78
2022/09/15 22:11:26;;;;;;;0.85;0.50;;;19.50;80.10;;;;;;5008547;28;19913;-78
2022/09/15 22:13:52;;;;;;;0.63;0.40;;;19.50;80.10;;;;;;5022079;28;20503;-77
2022/09/15 22:16:19;;;;;;;0.70;0.52;;;19.50;80.20;;;;;;5021582;28;20033;-78
2022/09/15 22:18:46;;;;;;;1.08;0.55;;;19.50;80.10;;;;;;5024866;28;20095;-78
2022/09/15 22:21:13;;;;;;;0.63;0.40;;;19.50;80.10;;;;;;5068512;28;20120;-77
2022/09/15 22:23:39;;;;;;;0.80;0.40;;;19.60;80.20;;;;;;5023446;28;20144;-76
2022/09/15 22:26:12;;;;;;;1.25;0.50;;;19.50;80.10;;;;;;5003964;28;20481;-77
2022/09/15 22:28:38;;;;;;;1.38;0.50;;;19.60;80.10;;;;;;5005347;28;20071;-78
2022/09/15 22:31:05;;;;;;;0.90;0.45;;;19.60;80.10;;;;;;4987961;28;20062;-77
2022/09/15 22:33:31;;;;;;;1.55;0.60;;;19.60;80.20;;;;;;4997323;28;20025;-78
2022/09/15 22:35:58;;;;;;;0.55;0.30;;;19.60;80.20;;;;;;5003644;28;20033;-78
2022/09/15 22:38:26;;;;;;;0.93;0.45;;;19.50;80.10;;;;;;5023489;28;20070;-78
2022/09/15 22:40:51;;;;;;;0.50;0.50;;;19.60;80.20;;;;;;5024950;28;20047;-77
2022/09/15 22:43:17;;;;;;;0.75;0.50;;;19.60;80.20;;;;;;5024839;28;20485;-77
2022/09/15 22:45:43;;;;;;;1.25;0.57;;;19.50;80.20;;;;;;5007527;28;20037;-79
2022/09/15 22:48:08;;;;;;;1.23;0.55;;;19.50;80.20;;;;;;5007459;28;20029;-78
2022/09/15 22:50:34;;;;;;;0.80;0.43;;;19.50;80.30;;;;;;5014742;28;20100;-78
2022/09/15 22:52:59;;;;;;;0.68;0.47;;;19.50;80.30;;;;;;5007215;28;20485;-77
2022/09/15 22:55:25;;;;;;;2.85;0.50;;;19.50;80.30;;;;;;5003793;28;20030;-78
2022/09/15 22:57:50;;;;;;;0.80;0.45;;;19.50;80.40;;;;;;5016801;28;20033;-76
2022/09/15 23:00:16;;;;;;;0.88;0.60;;;19.50;80.40;;;;;;5017392;28;20036;-78
2022/09/15 23:02:43;;;;;;;0.98;0.50;;;19.50;80.40;;;;;;5058647;28;20520;-78
2022/09/15 23:05:09;;;;;;;1.30;0.30;;;19.50;80.40;;;;;;5025899;28;20071;-77
2022/09/15 23:07:35;;;;;;;1.98;0.60;;;19.50;80.50;;;;;;5008786;28;20061;-77
2022/09/15 23:10:00;;;;;;;0.50;0.40;;;19.50;80.50;;;;;;5032384;28;20124;-76
2022/09/15 23:12:29;;;;;;;1.10;0.50;;;19.50;80.40;;;;;;5023704;28;20021;-76
2022/09/15 23:14:54;;;;;;;1.15;0.50;;;19.50;80.50;;;;;;5005697;28;20026;-77
2022/09/15 23:17:20;;;;;;;1.00;0.50;;;19.50;80.40;;;;;;5025131;28;20082;-77
2022/09/15 23:19:45;;;;;;;1.15;0.45;;;19.60;80.50;;;;;;5024512;28;20485;-78
2022/09/15 23:22:10;;;;;;;0.40;0.40;;;19.60;80.40;;;;;;5038385;28;20033;-77
2022/09/15 23:24:36;;;;;;;1.70;0.50;;;19.60;80.50;;;;;;5027524;28;20625;-77
2022/09/15 23:27:03;;;;;;;0.50;0.40;;;19.60;80.60;;;;;;5014678;28;20112;-77
2022/09/15 23:29:28;;;;;;;0.88;0.40;;;19.50;80.50;;;;;;5012008;28;20116;-77
2022/09/15 23:31:54;;;;;;;1.55;0.50;;;19.50;80.50;;;;;;5007172;28;20477;-77
2022/09/15 23:34:19;;;;;;;0.80;0.45;;;19.50;80.60;;;;;;5030643;28;20033;-78
2022/09/15 23:36:45;;;;;;;1.15;0.50;;;19.50;80.50;;;;;;5012419;28;20097;-78
2022/09/15 23:39:10;;;;;;;0.50;0.40;;;19.50;80.50;;;;;;5028116;28;20045;-78
2022/09/15 23:41:37;;;;;;;1.23;0.50;;;19.50;80.50;;;;;;5003221;28;20034;-78
2022/09/15 23:44:03;;;;;;;0.68;0.45;;;19.50;80.60;;;;;;5026043;28;20021;-76
2022/09/15 23:46:29;;;;;;;1.00;0.50;;;19.50;80.60;;;;;;5016932;28;20047;-76
2022/09/15 23:48:55;;;;;;;0.80;0.50;;;19.50;80.70;;;;;;5034312;28;20022;-77
2022/09/15 23:51:20;;;;;;;0.60;0.40;;;19.50;80.70;;;;;;5025480;28;20513;-78
2022/09/15 23:53:46;;;;;;;0.93;0.50;;;19.50;80.70;;;;;;5010680;28;20026;-78
2022/09/15 23:56:11;;;;;;;0.38;0.32;;;19.50;80.70;;;;;;5038942;28;20508;-78
2022/09/15 23:58:37;;;;;;;0.50;0.40;;;19.50;80.80;;;;;;5030834;28;20080;-77
